Time;durP1;ratioP1;P1;durP2;ratioP2;P2;SDS_P1;SDS_P2;PMS_P1;PMS_P2;Temp;Humidity;BMP_temperature;BMP_pressure;BME280_temperature;BME280_humidity;BME280_pressure;Samples;Min_cycle;Max_cycle;Signal;HPM_P1;HPM_P2
2021/12/24 08:09:25;;;;;;;16.10;9.00;;;;;;;;;;6245973;22;20343;-82
2021/12/24 09:28:46;;;;;;;19.42;12.23;;;;;;;;;;6188353;23;20016;-83
2021/12/24 09:31:12;;;;;;;17.60;11.98;;;;;;;;;;6217611;23;20009;-83
2021/12/24 09:33:37;;;;;;;16.67;10.88;;;;;;;;;;6217518;23;20005;-81
2021/12/24 09:36:03;;;;;;;17.20;11.30;;;;;;;;;;6217466;23;20004;-84
2021/12/24 09:38:28;;;;;;;16.45;10.98;;;;;;;;;;6215530;23;20008;-84
2021/12/24 09:40:53;;;;;;;15.35;10.73;;;;;;;;;;6217159;23;20028;-84
2021/12/24 09:43:19;;;;;;;15.50;10.25;;;;;;;;;;6217136;23;20075;-82
2021/12/24 09:45:44;;;;;;;15.68;9.70;;;;;;;;;;6216430;23;20484;-85
2021/12/24 09:48:10;;;;;;;15.52;8.77;;;;;;;;;;6217082;23;20420;-81
2021/12/24 09:50:35;;;;;;;13.02;9.18;;;;;;;;;;6217137;23;20075;-84
2021/12/24 09:53:01;;;;;;;13.88;9.52;;;;;;;;;;6217252;23;20000;-83
2021/12/24 09:55:29;;;;;;;14.07;9.15;;;;;;;;;;6215376;23;20009;-83
2021/12/24 09:57:55;;;;;;;13.80;9.20;;;;;;;;;;6217281;23;20007;-80
2021/12/24 10:00:22;;;;;;;14.35;10.55;;;;;;;;;;6217389;23;20312;-81
2021/12/24 10:02:51;;;;;;;15.32;10.50;;;;;;;;;;6217287;23;20005;-84
2021/12/24 10:05:37;;;;;;;14.90;10.52;;;;;;;;;;6216183;23;20379;-81
2021/12/24 10:08:24;;;;;;;13.70;10.25;;;;;;;;;;6216934;23;20000;-83
2021/12/24 10:11:02;;;;;;;12.88;9.35;;;;;;;;;;6216774;23;20439;-81
2021/12/24 10:13:43;;;;;;;11.32;7.93;;;;;;;;;;6215159;23;20004;-80
2021/12/24 10:16:17;;;;;;;15.65;8.90;;;;;;;;;;6217048;23;20051;-82
2021/12/24 10:18:48;;;;;;;12.70;9.05;;;;;;;;;;6216938;23;20323;-81
2021/12/24 10:21:22;;;;;;;16.73;10.75;;;;;;;;;;6217028;23;19996;-82
2021/12/24 10:24:02;;;;;;;13.25;8.50;;;;;;;;;;6216556;23;20028;-82
2021/12/24 10:26:37;;;;;;;15.65;9.93;;;;;;;;;;6216672;23;20005;-82
2021/12/24 10:29:07;;;;;;;12.02;8.70;;;;;;;;;;6225920;23;20419;-81
2021/12/24 10:31:39;;;;;;;;;;;;;;;;;;6247465;23;20004;-81
2021/12/24 10:34:21;;;;;;;19.95;9.38;;;;;;;;;;6246983;23;20323;-81
2021/12/24 10:36:51;;;;;;;12.27;8.80;;;;;;;;;;6220002;23;20012;-81
2021/12/24 10:39:17;;;;;;;;;;;;;;;;;;6247706;23;20019;-81
2021/12/24 10:41:46;;;;;;;11.38;7.72;;;;;;;;;;6246803;23;19911;-81
2021/12/24 10:44:33;;;;;;;13.85;8.10;;;;;;;;;;6246910;23;20004;-83
2021/12/24 10:47:01;;;;;;;13.60;8.35;;;;;;;;;;6247317;23;20000;-87
2021/12/24 10:54:56;;;;;;;24.60;14.93;;;;;;;;;;6247253;23;20308;-80
2021/12/24 10:57:30;;;;;;;16.70;10.73;;;;;;;;;;6246898;23;20004;-81
2021/12/24 10:59:59;;;;;;;15.38;9.77;;;;;;;;;;6247014;23;20079;-80
2021/12/24 11:02:33;;;;;;;8.70;6.37;;;;;;;;;;6247022;23;20008;-82
2021/12/24 11:04:59;;;;;;;9.40;6.55;;;;;;;;;;6246659;23;20080;-82
2021/12/24 11:07:37;;;;;;;11.50;7.75;;;;;;;;;;6248471;23;20327;-84
2021/12/24 11:10:24;;;;;;;12.00;8.40;;;;;;;;;;6247511;23;19996;-82
2021/12/24 11:12:54;;;;;;;8.65;7.20;;;;;;;;;;6247172;23;20000;-82
2021/12/24 11:15:25;;;;;;;9.80;6.43;;;;;;;;;;6246810;23;19996;-83
2021/12/24 11:17:55;;;;;;;14.10;7.15;;;;;;;;;;6221034;23;20446;-88
2021/12/24 11:20:21;;;;;;;12.80;7.80;;;;;;;;;;6247179;23;20000;-85
2021/12/24 11:22:49;;;;;;;10.35;7.47;;;;;;;;;;6219813;23;20334;-81
2021/12/24 11:25:15;;;;;;;9.07;7.30;;;;;;;;;;6246655;23;20300;-80
2021/12/24 11:27:40;;;;;;;10.20;7.25;;;;;;;;;;6248152;23;20043;-95
2021/12/24 11:30:06;;;;;;;10.07;7.07;;;;;;;;;;6247592;23;20022;-84
2021/12/24 11:32:32;;;;;;;13.63;8.00;;;;;;;;;;6246686;23;20450;-81
2021/12/24 11:34:58;;;;;;;15.18;7.70;;;;;;;;;;6246235;23;20009;-79
2021/12/24 11:37:24;;;;;;;12.90;7.90;;;;;;;;;;6219811;23;20008;-81
2021/12/24 11:39:50;;;;;;;15.55;9.55;;;;;;;;;;6246906;23;20031;-80
2021/12/24 11:42:16;;;;;;;16.50;8.65;;;;;;;;;;6246557;23;20434;-82
2021/12/24 11:44:42;;;;;;;17.75;9.80;;;;;;;;;;6246065;23;20012;-81
2021/12/24 11:47:07;;;;;;;15.75;9.40;;;;;;;;;;6246428;23;20386;-81
2021/12/24 11:49:34;;;;;;;13.57;9.00;;;;;;;;;;6247555;23;20000;-80
2021/12/24 11:51:59;;;;;;;12.70;7.78;;;;;;;;;;6246546;23;19996;-82
2021/12/24 11:54:25;;;;;;;10.57;7.50;;;;;;;;;;6246312;23;20003;-81
2021/12/24 11:56:53;;;;;;;11.32;8.23;;;;;;;;;;6246703;23;20000;-82
2021/12/24 11:59:37;;;;;;;19.17;8.98;;;;;;;;;;6246467;23;20007;-84
2021/12/24 12:02:03;;;;;;;13.75;8.52;;;;;;;;;;6246202;23;19996;-84
2021/12/24 12:04:28;;;;;;;16.13;7.65;;;;;;;;;;6246738;23;20007;-86
2021/12/24 12:07:11;;;;;;;12.90;7.70;;;;;;;;;;6246844;23;20004;-84
2021/12/24 12:09:41;;;;;;;15.45;7.97;;;;;;;;;;6248008;23;20079;-83
2021/12/24 12:12:07;;;;;;;10.65;8.07;;;;;;;;;;6248386;23;20004;-81
2021/12/24 12:14:34;;;;;;;11.23;7.63;;;;;;;;;;6248176;23;20033;-80
2021/12/24 12:17:01;;;;;;;12.80;8.02;;;;;;;;;;6248321;23;20062;-81
2021/12/24 12:22:30;;;;;;;11.63;7.38;;;;;;;;;;6248984;23;20061;-88
2021/12/24 12:25:09;;;;;;;11.77;8.02;;;;;;;;;;6248457;23;20004;-91
2021/12/24 12:27:44;;;;;;;11.60;8.00;;;;;;;;;;6250347;23;20054;-87
2021/12/24 12:30:39;;;;;;;12.05;7.85;;;;;;;;;;6257369;23;20012;-96
2021/12/24 12:33:18;;;;;;;13.68;8.02;;;;;;;;;;6225180;23;20023;-95
2021/12/24 12:35:50;;;;;;;12.63;8.50;;;;;;;;;;6251888;23;20079;-83
2021/12/24 12:38:40;;;;;;;12.98;7.85;;;;;;;;;;6250634;23;20036;-82
2021/12/24 12:41:24;;;;;;;10.00;7.97;;;;;;;;;;6250292;23;20004;-83
2021/12/24 12:43:54;;;;;;;9.27;7.18;;;;;;;;;;6250693;23;20004;-83
2021/12/24 12:46:31;;;;;;;10.32;7.07;;;;;;;;;;6255554;23;20078;-83
2021/12/24 12:49:00;;;;;;;11.48;8.27;;;;;;;;;;6252373;23;20383;-83
2021/12/24 12:51:54;;;;;;;10.80;8.20;;;;;;;;;;6223635;23;20010;-83
2021/12/24 12:54:32;;;;;;;10.23;7.78;;;;;;;;;;6222396;23;20062;-81
2021/12/24 12:57:21;;;;;;;11.43;8.00;;;;;;;;;;6250083;23;20004;-83
2021/12/24 13:00:17;;;;;;;11.85;8.27;;;;;;;;;;6250292;23;20424;-83
2021/12/24 13:03:14;;;;;;;12.02;8.23;;;;;;;;;;6248088;23;20439;-83
2021/12/24 13:05:48;;;;;;;16.67;7.75;;;;;;;;;;6250105;23;20356;-83
2021/12/24 13:08:39;;;;;;;15.85;7.95;;;;;;;;;;6252563;23;20079;-84
2021/12/24 13:11:24;;;;;;;23.85;10.45;;;;;;;;;;6252456;23;20012;-84
2021/12/24 13:14:00;;;;;;;12.43;9.02;;;;;;;;;;6224932;23;20079;-84
2021/12/24 13:17:44;;;;;;;13.02;8.25;;;;;;;;;;6250941;23;20007;-84
2021/12/24 13:22:29;;;;;;;14.80;8.35;;;;;;;;;;6253014;23;20015;-83
2021/12/24 13:25:11;;;;;;;14.38;8.27;;;;;;;;;;6249890;23;20000;-84
2021/12/24 13:27:41;;;;;;;14.73;9.18;;;;;;;;;;6249699;23;20003;-83
2021/12/24 13:30:06;;;;;;;14.75;8.93;;;;;;;;;;6249748;23;20035;-83
2021/12/24 13:32:43;;;;;;;12.30;9.02;;;;;;;;;;6249935;23;20423;-84
2021/12/24 13:35:10;;;;;;;12.88;8.23;;;;;;;;;;6250316;23;20032;-83
2021/12/24 13:37:37;;;;;;;12.70;8.48;;;;;;;;;;6222556;23;20007;-83
2021/12/24 13:40:08;;;;;;;14.43;8.60;;;;;;;;;;6249313;23;20083;-83
2021/12/24 13:42:56;;;;;;;11.50;8.63;;;;;;;;;;6256919;23;20010;-84
2021/12/24 13:45:24;;;;;;;19.10;9.70;;;;;;;;;;6233350;22;20069;-83
2021/12/24 13:47:59;;;;;;;19.35;9.00;;;;;;;;;;6268249;23;20031;-84
2021/12/24 13:56:46;;;;;;;12.20;8.43;;;;;;;;;;6267957;22;20220;-84
2021/12/24 13:59:15;;;;;;;12.75;7.68;;;;;;;;;;6272777;22;19992;-84
2021/12/24 14:01:42;;;;;;;13.77;9.23;;;;;;;;;;6258846;23;20399;-84
2021/12/24 14:04:10;;;;;;;11.45;8.48;;;;;;;;;;6262115;23;20403;-83
2021/12/24 14:06:40;;;;;;;14.43;9.32;;;;;;;;;;6261249;23;20061;-84
2021/12/24 14:09:09;;;;;;;15.25;9.95;;;;;;;;;;6263704;23;20006;-84
2021/12/24 14:11:37;;;;;;;16.63;10.18;;;;;;;;;;6263977;23;19996;-84
2021/12/24 14:14:10;;;;;;;18.45;10.43;;;;;;;;;;6234977;23;20008;-84
2021/12/24 14:19:12;;;;;;;16.80;10.05;;;;;;;;;;6256921;23;20011;-90
2021/12/24 14:21:47;;;;;;;15.70;10.32;;;;;;;;;;6228489;23;20011;-85
2021/12/24 14:24:21;;;;;;;14.60;9.40;;;;;;;;;;6251039;23;20011;-84
2021/12/24 14:27:02;;;;;;;13.00;8.90;;;;;;;;;;6223701;23;20065;-83
2021/12/24 14:29:53;;;;;;;14.98;10.02;;;;;;;;;;6247304;23;20023;-84
2021/12/24 14:32:37;;;;;;;13.43;9.02;;;;;;;;;;6247049;23;20004;-83
2021/12/24 14:35:20;;;;;;;13.23;9.10;;;;;;;;;;6247211;23;20004;-86
2021/12/24 14:38:17;;;;;;;14.25;9.57;;;;;;;;;;6220488;23;20007;-84
2021/12/24 14:40:43;;;;;;;13.35;8.32;;;;;;;;;;6217570;23;20008;-84
2021/12/24 14:43:13;;;;;;;12.25;8.20;;;;;;;;;;6249237;23;20054;-83
2021/12/24 14:45:45;;;;;;;12.40;8.73;;;;;;;;;;6224057;23;20019;-87
2021/12/24 14:48:24;;;;;;;12.95;7.63;;;;;;;;;;6248461;23;20000;-88
2021/12/24 14:51:12;;;;;;;12.43;8.45;;;;;;;;;;6251829;23;20009;-86
2021/12/24 14:53:42;;;;;;;11.27;7.53;;;;;;;;;;6248466;23;20088;-85
2021/12/24 14:56:09;;;;;;;12.77;7.93;;;;;;;;;;6220923;23;20094;-83
2021/12/24 14:58:54;;;;;;;13.13;9.00;;;;;;;;;;6246884;23;20008;-84
2021/12/24 15:01:43;;;;;;;12.68;8.90;;;;;;;;;;6247472;23;20000;-85
2021/12/24 15:04:12;;;;;;;12.50;8.80;;;;;;;;;;6234065;23;20012;-85
2021/12/24 15:06:58;;;;;;;11.50;8.55;;;;;;;;;;6234545;22;20000;-83
2021/12/24 15:09:30;;;;;;;11.48;8.10;;;;;;;;;;6250186;22;19995;-84
2021/12/24 15:11:59;;;;;;;12.80;7.85;;;;;;;;;;6269964;22;20031;-83
2021/12/24 15:14:32;;;;;;;10.65;7.70;;;;;;;;;;6269596;23;20008;-84
2021/12/24 15:16:58;;;;;;;15.02;8.02;;;;;;;;;;6267952;23;20160;-95
2021/12/24 15:19:23;;;;;;;12.63;8.00;;;;;;;;;;6240953;23;20011;-90
2021/12/24 15:21:49;;;;;;;11.18;7.95;;;;;;;;;;6266176;23;19980;-92
2021/12/24 15:24:16;;;;;;;11.88;7.57;;;;;;;;;;6263201;23;20285;-87
2021/12/24 15:26:43;;;;;;;11.20;7.88;;;;;;;;;;6250722;23;20011;-90
2021/12/24 15:29:09;;;;;;;12.10;7.63;;;;;;;;;;6252500;23;20020;-93
2021/12/24 15:31:36;;;;;;;11.60;8.18;;;;;;;;;;6233162;23;20382;-96
2021/12/24 15:34:03;;;;;;;9.68;7.03;;;;;;;;;;6258497;23;20000;-95
2021/12/24 15:36:29;;;;;;;12.23;8.15;;;;;;;;;;6203619;23;20024;-96
2021/12/24 15:38:57;;;;;;;13.13;7.68;;;;;;;;;;6241630;23;20016;-83
2021/12/24 15:44:15;;;;;;;17.88;11.60;;;;;;;;;;6269385;22;20026;-95
2021/12/24 15:46:47;;;;;;;14.88;9.57;;;;;;;;;;6234086;23;20008;-82
2021/12/24 15:49:12;;;;;;;17.90;11.38;;;;;;;;;;6217042;23;20139;-86
2021/12/24 15:51:38;;;;;;;13.85;8.55;;;;;;;;;;6217125;23;20444;-82
2021/12/24 15:54:03;;;;;;;12.60;9.13;;;;;;;;;;6217021;23;20309;-83
2021/12/24 15:56:29;;;;;;;13.35;8.80;;;;;;;;;;6189813;23;20016;-85
2021/12/24 15:58:56;;;;;;;11.15;7.63;;;;;;;;;;6219960;23;20004;-85
2021/12/24 16:01:22;;;;;;;10.55;7.30;;;;;;;;;;6218713;23;20080;-84
2021/12/24 16:03:47;;;;;;;11.43;7.80;;;;;;;;;;6216644;23;19996;-88
2021/12/24 16:06:13;;;;;;;13.02;7.93;;;;;;;;;;6188731;23;20012;-90
2021/12/24 16:08:38;;;;;;;11.20;7.82;;;;;;;;;;6189913;23;20412;-88
2021/12/24 16:11:04;;;;;;;12.52;8.10;;;;;;;;;;6189570;23;20043;-88
2021/12/24 16:13:29;;;;;;;12.07;7.75;;;;;;;;;;6189753;23;20013;-90
2021/12/24 16:15:56;;;;;;;12.80;8.40;;;;;;;;;;6189752;23;20027;-88
2021/12/24 16:18:22;;;;;;;14.43;8.75;;;;;;;;;;6216497;23;20009;-86
2021/12/24 16:20:48;;;;;;;14.77;9.93;;;;;;;;;;6189659;23;20009;-86
2021/12/24 16:23:14;;;;;;;12.00;8.27;;;;;;;;;;6189386;23;20435;-87
2021/12/24 16:25:40;;;;;;;10.43;7.22;;;;;;;;;;6188877;23;20038;-86
2021/12/24 16:28:06;;;;;;;12.32;8.50;;;;;;;;;;6215973;23;20012;-86
2021/12/24 16:30:32;;;;;;;14.45;8.75;;;;;;;;;;6216069;23;20070;-86
2021/12/24 16:32:59;;;;;;;13.55;8.90;;;;;;;;;;6215574;23;19996;-86
2021/12/24 16:35:27;;;;;;;14.98;9.32;;;;;;;;;;6189337;23;20004;-86
2021/12/24 16:37:53;;;;;;;13.63;8.55;;;;;;;;;;6189049;23;20058;-86
2021/12/24 16:40:22;;;;;;;12.00;8.63;;;;;;;;;;6215783;23;20008;-86
2021/12/24 16:42:51;;;;;;;15.13;8.95;;;;;;;;;;6183909;23;20496;-87
2021/12/24 16:45:22;;;;;;;14.73;9.68;;;;;;;;;;6185636;23;20015;-87
2021/12/24 16:47:48;;;;;;;13.13;9.13;;;;;;;;;;6184549;23;20009;-88
2021/12/24 16:50:14;;;;;;;13.43;8.68;;;;;;;;;;6186131;23;20485;-87
2021/12/24 16:52:40;;;;;;;13.00;8.63;;;;;;;;;;6186221;23;20024;-86
2021/12/24 16:55:06;;;;;;;13.88;9.13;;;;;;;;;;6186584;23;20012;-87
2021/12/24 16:57:32;;;;;;;14.30;8.60;;;;;;;;;;6186158;23;20013;-88
2021/12/24 16:59:57;;;;;;;12.95;8.35;;;;;;;;;;6186511;23;20016;-87
2021/12/24 17:02:23;;;;;;;13.48;9.20;;;;;;;;;;6186090;23;20416;-86
2021/12/24 17:04:49;;;;;;;11.23;7.80;;;;;;;;;;6186158;23;20005;-87
2021/12/24 17:07:15;;;;;;;14.77;8.48;;;;;;;;;;6185971;23;20016;-84
2021/12/24 17:09:41;;;;;;;13.57;8.70;;;;;;;;;;6185895;23;20008;-88
2021/12/24 17:12:11;;;;;;;14.40;8.93;;;;;;;;;;6187647;23;20012;-86
2021/12/24 17:14:40;;;;;;;13.30;8.50;;;;;;;;;;6185844;23;20371;-87
2021/12/24 17:17:07;;;;;;;12.80;8.70;;;;;;;;;;6187708;23;20081;-86
2021/12/24 17:19:32;;;;;;;14.45;10.05;;;;;;;;;;6185984;23;20008;-86
2021/12/24 17:21:58;;;;;;;16.65;9.65;;;;;;;;;;6186886;23;20145;-87
2021/12/24 17:24:25;;;;;;;13.07;9.07;;;;;;;;;;6186095;23;20037;-85
2021/12/24 17:26:55;;;;;;;14.75;9.25;;;;;;;;;;6185426;23;20005;-87
2021/12/24 17:29:21;;;;;;;;;;;;;;;;;;6186676;23;20020;-86
2021/12/24 17:31:51;;;;;;;16.83;10.20;;;;;;;;;;6188133;23;19939;-86
2021/12/24 17:34:17;;;;;;;14.57;10.30;;;;;;;;;;6186143;23;20476;-86
2021/12/24 17:36:44;;;;;;;19.63;11.07;;;;;;;;;;6187505;23;20001;-82
2021/12/24 17:39:12;;;;;;;14.55;9.73;;;;;;;;;;6187845;23;20340;-86
2021/12/24 17:41:37;;;;;;;16.42;9.55;;;;;;;;;;6187697;23;20009;-86
2021/12/24 21:32:49;;;;;;;24.35;14.35;;;;;;;;;;6193222;23;20016;-85
2021/12/24 21:35:15;;;;;;;23.70;14.48;;;;;;;;;;6247808;23;20019;-84
2021/12/24 21:37:41;;;;;;;20.17;13.80;;;;;;;;;;6247765;23;20091;-84
2021/12/24 21:40:11;;;;;;;22.13;13.70;;;;;;;;;;6247396;23;20000;-83
2021/12/24 21:42:36;;;;;;;19.02;13.30;;;;;;;;;;6247040;23;20327;-84
2021/12/24 21:45:05;;;;;;;21.15;14.07;;;;;;;;;;6221007;23;20015;-84
2021/12/24 21:47:35;;;;;;;19.17;12.73;;;;;;;;;;6248127;23;20438;-85
2021/12/24 21:50:02;;;;;;;17.27;12.45;;;;;;;;;;6247815;23;20004;-84
2021/12/24 21:52:27;;;;;;;20.80;13.07;;;;;;;;;;6248142;23;19996;-89
2021/12/24 21:54:53;;;;;;;19.05;12.05;;;;;;;;;;6248311;23;20083;-89
2021/12/24 21:57:18;;;;;;;18.90;11.77;;;;;;;;;;6221931;23;20008;-88
2021/12/24 21:59:45;;;;;;;19.70;12.50;;;;;;;;;;6221755;23;20014;-87
2021/12/24 22:02:11;;;;;;;18.85;11.77;;;;;;;;;;6248475;23;20001;-90
2021/12/24 22:05:08;;;;;;;16.33;10.80;;;;;;;;;;6248708;23;20015;-89
2021/12/24 22:10:15;;;;;;;18.88;10.82;;;;;;;;;;6248554;23;20019;-89
2021/12/24 22:12:41;;;;;;;16.98;11.65;;;;;;;;;;6248468;23;20008;-87
2021/12/24 22:15:06;;;;;;;16.77;10.60;;;;;;;;;;6248437;23;20004;-90
2021/12/24 22:17:32;;;;;;;18.08;11.35;;;;;;;;;;6248343;23;20323;-90
2021/12/24 22:19:57;;;;;;;16.45;10.98;;;;;;;;;;6249018;23;20075;-89
2021/12/24 22:22:29;;;;;;;17.85;11.90;;;;;;;;;;6248985;23;20011;-87
2021/12/24 22:25:08;;;;;;;20.13;12.57;;;;;;;;;;6249162;23;20012;-90
2021/12/24 22:27:37;;;;;;;16.98;11.18;;;;;;;;;;6247215;23;19996;-83
2021/12/24 22:30:15;;;;;;;19.50;11.68;;;;;;;;;;6220287;23;20450;-85
2021/12/24 22:32:42;;;;;;;17.17;11.07;;;;;;;;;;6220531;23;20008;-84
2021/12/24 22:35:08;;;;;;;19.42;12.05;;;;;;;;;;6220357;23;20426;-84
2021/12/24 22:37:33;;;;;;;17.35;11.35;;;;;;;;;;6247428;23;20034;-83
2021/12/24 22:39:59;;;;;;;14.63;10.70;;;;;;;;;;6247090;23;20075;-84
2021/12/24 22:42:24;;;;;;;15.05;10.02;;;;;;;;;;6247446;23;20386;-84
2021/12/24 22:44:55;;;;;;;13.52;9.23;;;;;;;;;;6219900;23;20008;-84
2021/12/24 22:47:21;;;;;;;12.65;8.95;;;;;;;;;;6247131;23;20434;-85
2021/12/24 22:49:46;;;;;;;14.40;9.90;;;;;;;;;;6247157;23;20019;-83
2021/12/24 22:52:14;;;;;;;14.95;8.48;;;;;;;;;;6220341;23;20027;-85
2021/12/24 22:54:40;;;;;;;11.95;8.35;;;;;;;;;;6247348;23;20038;-86
2021/12/24 22:57:06;;;;;;;12.13;8.13;;;;;;;;;;6220081;23;20493;-85
